Airfield :
LOGIN :

Register | Disclaimer

   EN    FR    IT 

 










Legend :    VFR   Marginal VFR   IFR   Intensive IFR   Very Intensive IFR
Visi :
Ceiling :
>= 8 km
>= 3000ft
5 to 8 km
1000 to 3000 ft
1500m to 5 km
500 to 1000 ft
800 to 1500m
200 to 500 ft
< 800m
< 200 ft
Symbols :   Thunderstorms  Fog  Heavy snow  Heavy precipitations  Wind > 20 kt
SIGMETs :     Misc.  Thunderstorms  Icing  Turbulence  Mountain Waves  Volcanic Ashes






- Airport Elevation : 160 ft
- IATA code : LRT


LFRH - Lorient Lann Bihoue

CURRENT METAR :
  • 271530Z AUTO 25014KT 220V280 9999 FEW027 BKN190 15/09 Q1020 BECMG 26015G25KT

EXPIRED METARs :
  • 271500Z AUTO 24017KT 9999 FEW030 SCT240 16/09 Q1020 TEMPO SHRA SCT030TCU BECMG 26015G25KT
  • 271430Z AUTO 25015KT 210V280 9999 FEW029 17/09 Q1020 TEMPO SHRA SCT030TCU BECMG 26015G25KT
  • 271400Z AUTO 24016KT 9999 FEW027 BKN060 17/10 Q1020 TEMPO SHRA SCT030TCU BECMG 26015G25KT
  • 271330Z AUTO 24013KT 210V280 9999 FEW023 SCT029 BKN058 17/11 Q1020 TEMPO SHRA SCT030TCU BECMG 26015G25KT
  • 271300Z AUTO 24012KT 220V280 9999 FEW007 BKN058 17/11 Q1020 TEMPO 4000 SHRA SCT030TCU BECMG 26015G25KT
  • 271230Z AUTO 24013KT 210V270 9999 FEW008 SCT024 BKN058 16/11 Q1020 TEMPO 4000 SHRA SCT030TCU BECMG 26015G25KT
  • 271200Z AUTO 24014KT 210V270 9999 FEW025 SCT030 16/10 Q1020 TEMPO 4000 SHRA SCT030CB BECMG 26015G25KT
  • 271130Z AUTO 25013KT 9999 FEW036 BKN049 OVC056 15/09 Q1020 TEMPO 4000 SHRA SCT030CB BECMG 26015G25KT
  • 271100Z AUTO 26013KT 230V300 9999 FEW020 SCT038 BKN044 15/09 Q1020 TEMPO 4000 SHRA BKN030CB

TAF TAF LFRH
Valid from the 27 at 12:00 until the 28 at 12:00 UTC


271100Z 2712/2812 26015G25KT 9999 FEW030 BKN040
TEMPO 2712/2716 SHRA SCT030TCU
PROB30
TEMPO 2712/2714 4000 SHRA SCT030CB
BECMG 2717/2719 BKN015
TEMPO 2719/2806 -RA BKN012 OVC015
TEMPO 2723/2804 4000 -RA BKN008
PROB40
TEMPO 2806/2812 BKN006



MET'MAP, your aeronautical weather chart ! - Copyright ORBIFLY December 2007 - Disclaimer

ORBIFLY MET'MAP TEAM :

Programming & Development : Alexandra Zaïnal
Original concept : Baudouin d'Aumeries
Technical & hardware support : Manuel Goepfert
Assistance : Marc-Olivier Méhu




SOURCES & CREDITS :

   NOAA